createdAt,value
2023-08-29T00:00:04.902Z,10.88
2023-08-29T00:01:14.772Z,10.86
2023-08-29T00:02:16.396Z,10.90
2023-08-29T00:03:17.908Z,10.95
2023-08-29T00:04:19.432Z,10.97
2023-08-29T00:05:21.277Z,10.89
2023-08-29T00:06:22.936Z,10.89
2023-08-29T00:07:24.712Z,10.89
2023-08-29T00:08:26.281Z,10.87
2023-08-29T00:09:27.743Z,10.83
2023-08-29T00:10:29.392Z,10.87
2023-08-29T00:11:31.078Z,10.87
2023-08-29T00:12:35.659Z,10.87
2023-08-29T00:13:37.122Z,10.86
2023-08-29T00:14:38.802Z,10.86
2023-08-29T00:15:40.304Z,10.88
2023-08-29T00:16:41.793Z,10.92
2023-08-29T00:17:44.691Z,10.89
2023-08-29T00:18:46.576Z,10.95
2023-08-29T00:19:48.348Z,10.94
2023-08-29T00:20:50.182Z,10.91
2023-08-29T00:21:52.638Z,10.88
2023-08-29T00:22:54.273Z,10.92
2023-08-29T00:23:55.730Z,10.89
2023-08-29T00:24:59.177Z,10.94
2023-08-29T00:26:00.690Z,10.85
2023-08-29T00:27:02.169Z,10.86
2023-08-29T00:28:04.839Z,10.85
2023-08-29T00:29:06.703Z,10.81
2023-08-29T00:30:08.970Z,10.84
2023-08-29T00:31:11.422Z,10.83
2023-08-29T00:32:14.355Z,10.81
2023-08-29T00:33:17.571Z,10.82
2023-08-29T00:34:19.077Z,10.84
2023-08-29T00:35:20.502Z,10.81
2023-08-29T00:36:22.153Z,10.87
2023-08-29T00:37:23.601Z,10.85
2023-08-29T00:38:25.069Z,10.84
2023-08-29T00:39:28.020Z,10.84
2023-08-29T00:40:33.040Z,10.84
2023-08-29T00:41:34.539Z,10.87
2023-08-29T00:42:36.024Z,10.88
2023-08-29T00:43:38.532Z,10.87
2023-08-29T00:44:39.964Z,10.87
2023-08-29T00:45:42.009Z,10.87
2023-08-29T00:46:45.414Z,10.87
2023-08-29T00:47:47.442Z,10.86
2023-08-29T00:48:49.853Z,10.90
2023-08-29T00:49:51.645Z,10.86
2023-08-29T00:50:53.864Z,10.86
2023-08-29T00:51:55.411Z,10.84
2023-08-29T00:53:00.452Z,10.84
2023-08-29T00:54:04.265Z,10.85
2023-08-29T00:55:06.411Z,10.85
2023-08-29T00:56:07.994Z,10.84
2023-08-29T00:57:09.717Z,10.84
2023-08-29T00:58:12.960Z,10.84
2023-08-29T00:59:15.673Z,10.83
2023-08-29T01:00:17.305Z,10.88
2023-08-29T01:01:19.026Z,10.87
2023-08-29T01:02:20.606Z,10.96
2023-08-29T01:03:22.878Z,10.91
2023-08-29T01:04:24.650Z,10.89
2023-08-29T01:05:26.284Z,10.90
2023-08-29T01:06:28.250Z,10.86
2023-08-29T01:07:29.776Z,10.89
2023-08-29T01:08:31.593Z,10.89
2023-08-29T01:09:35.736Z,10.89
2023-08-29T01:11:09.249Z,10.86
2023-08-29T01:12:18.639Z,11.00
2023-08-29T01:13:27.850Z,10.92
2023-08-29T01:14:48.357Z,10.95
2023-08-29T01:15:54.294Z,10.94
2023-08-29T01:17:10.991Z,10.90
2023-08-29T01:18:14.157Z,10.89
2023-08-29T01:19:16.632Z,10.87
2023-08-29T01:20:19.130Z,11.05
2023-08-29T01:21:29.922Z,10.96
2023-08-29T01:23:15.370Z,10.90
2023-08-29T01:24:33.075Z,10.87
2023-08-29T01:25:46.770Z,10.91
2023-08-29T01:26:50.054Z,10.88
2023-08-29T01:27:51.776Z,10.85
2023-08-29T01:28:54.641Z,10.85
2023-08-29T01:29:57.849Z,10.85
2023-08-29T01:31:02.676Z,10.83
2023-08-29T01:32:05.709Z,10.86
2023-08-29T01:33:08.838Z,10.87
2023-08-29T01:34:13.193Z,10.91
2023-08-29T01:35:17.051Z,10.91
2023-08-29T01:36:18.493Z,10.90
2023-08-29T01:37:19.920Z,10.90
2023-08-29T01:38:21.407Z,10.89
2023-08-29T01:39:22.862Z,10.87
2023-08-29T01:40:24.345Z,10.84
2023-08-29T01:41:25.883Z,10.87
2023-08-29T01:42:27.408Z,10.85
2023-08-29T01:43:28.866Z,10.86
2023-08-29T01:44:32.114Z,10.85
2023-08-29T01:45:34.500Z,10.85
2023-08-29T01:46:37.929Z,10.87
2023-08-29T01:47:39.432Z,10.88
2023-08-29T01:48:42.025Z,10.85
2023-08-29T01:49:44.405Z,10.85
2023-08-29T01:50:46.877Z,10.87
2023-08-29T01:51:49.007Z,10.83
2023-08-29T01:52:50.598Z,10.93
2023-08-29T01:53:53.169Z,10.95
2023-08-29T01:54:56.132Z,10.91
2023-08-29T01:56:00.529Z,10.87
2023-08-29T01:57:04.016Z,10.83
2023-08-29T01:58:08.328Z,10.84
2023-08-29T01:59:11.208Z,10.84
2023-08-29T02:00:14.377Z,10.85
2023-08-29T02:01:23.441Z,10.84
2023-08-29T02:02:26.045Z,10.79
2023-08-29T02:03:27.711Z,10.83
2023-08-29T02:04:31.976Z,10.84
2023-08-29T02:05:33.510Z,10.82
2023-08-29T02:06:35.019Z,10.78
2023-08-29T02:07:36.809Z,10.81
2023-08-29T02:08:38.895Z,10.85
2023-08-29T02:09:41.747Z,10.82
2023-08-29T02:10:43.245Z,10.83
2023-08-29T02:11:44.718Z,10.79
2023-08-29T02:12:46.172Z,10.76
2023-08-29T02:13:47.689Z,10.77
2023-08-29T02:14:49.235Z,10.78
2023-08-29T02:15:50.763Z,10.78
2023-08-29T02:16:52.429Z,10.78
2023-08-29T02:17:54.480Z,10.79
2023-08-29T02:18:56.383Z,10.78
2023-08-29T02:19:58.147Z,10.80
2023-08-29T02:20:59.610Z,10.82
2023-08-29T02:22:03.108Z,10.80
2023-08-29T02:23:06.646Z,10.77
2023-08-29T02:24:08.186Z,10.86
2023-08-29T02:25:10.749Z,10.83
2023-08-29T02:26:12.292Z,10.81
2023-08-29T02:27:14.126Z,10.86
2023-08-29T02:28:15.912Z,10.83
2023-08-29T02:29:17.355Z,10.86
2023-08-29T02:30:18.900Z,11.02
2023-08-29T02:31:21.525Z,11.02
2023-08-29T02:32:23.090Z,11.01
2023-08-29T02:33:25.992Z,11.03
2023-08-29T02:34:30.907Z,11.06
2023-08-29T02:35:32.676Z,11.12
2023-08-29T02:36:34.106Z,11.04
2023-08-29T02:37:36.182Z,11.11
2023-08-29T02:38:37.784Z,11.05
2023-08-29T02:39:39.305Z,11.04
2023-08-29T02:40:40.826Z,10.99
2023-08-29T02:41:42.368Z,11.03
2023-08-29T02:42:44.841Z,11.12
2023-08-29T02:43:46.294Z,11.01
2023-08-29T02:44:47.804Z,11.00
2023-08-29T02:45:52.322Z,10.98
2023-08-29T02:46:53.844Z,11.01
2023-08-29T02:47:55.377Z,11.04
2023-08-29T02:48:56.906Z,11.05
2023-08-29T02:49:58.327Z,11.07
2023-08-29T02:50:59.855Z,11.01
2023-08-29T02:52:01.488Z,11.03
2023-08-29T02:53:03.635Z,10.95
2023-08-29T02:54:05.236Z,10.89
2023-08-29T02:55:07.415Z,10.86
2023-08-29T02:56:08.952Z,10.83
2023-08-29T02:57:10.419Z,10.98
2023-08-29T02:58:11.990Z,10.96
2023-08-29T02:59:13.524Z,10.90
2023-08-29T03:00:15.812Z,10.86
2023-08-29T03:01:17.554Z,10.87
2023-08-29T03:02:19.323Z,10.93
2023-08-29T03:03:21.499Z,10.88
2023-08-29T03:04:23.147Z,10.87
2023-08-29T03:05:24.906Z,10.86
2023-08-29T03:06:26.838Z,10.87
2023-08-29T03:07:29.010Z,10.85
2023-08-29T03:08:31.810Z,10.83
2023-08-29T03:09:34.837Z,10.80
2023-08-29T03:10:39.558Z,10.81
2023-08-29T03:11:41.030Z,10.81
2023-08-29T03:12:42.835Z,10.80
2023-08-29T03:13:44.310Z,10.78
2023-08-29T03:14:45.808Z,10.81
2023-08-29T03:15:47.493Z,10.85
2023-08-29T03:16:49.198Z,10.83
2023-08-29T03:17:51.441Z,10.81
2023-08-29T03:18:53.462Z,10.88
2023-08-29T03:19:54.994Z,10.91
2023-08-29T03:20:57.123Z,10.92
2023-08-29T03:21:58.613Z,10.94
2023-08-29T03:23:01.307Z,10.91
2023-08-29T03:24:03.482Z,10.91
2023-08-29T03:25:06.442Z,10.91
2023-08-29T03:26:11.417Z,10.91
2023-08-29T03:27:13.503Z,10.96
2023-08-29T03:28:15.036Z,10.96
2023-08-29T03:29:16.541Z,10.94
2023-08-29T03:30:18.140Z,11.09
2023-08-29T03:31:19.687Z,11.02
2023-08-29T03:32:21.547Z,11.01
2023-08-29T03:33:23.854Z,10.98
2023-08-29T03:34:26.063Z,10.97
2023-08-29T03:35:27.585Z,10.96
2023-08-29T03:36:29.089Z,10.97
2023-08-29T03:37:30.588Z,10.94
2023-08-29T03:38:36.074Z,10.98
2023-08-29T03:39:37.542Z,10.94
2023-08-29T03:40:39.088Z,10.85
2023-08-29T03:41:40.693Z,10.87
2023-08-29T03:42:43.668Z,10.88
2023-08-29T03:43:45.184Z,10.98
2023-08-29T03:44:46.640Z,10.95
2023-08-29T03:45:48.106Z,10.99
2023-08-29T03:46:49.625Z,10.97
2023-08-29T03:47:52.458Z,11.00
2023-08-29T03:48:54.021Z,10.97
2023-08-29T03:49:55.841Z,10.96
2023-08-29T03:50:59.302Z,10.95
2023-08-29T03:52:00.805Z,10.97
2023-08-29T03:53:02.341Z,10.95
2023-08-29T03:54:03.926Z,10.93
2023-08-29T03:55:06.385Z,10.92
2023-08-29T03:56:10.252Z,10.92
2023-08-29T03:57:11.797Z,10.91
2023-08-29T03:58:14.353Z,10.87
2023-08-29T03:59:16.324Z,10.86
2023-08-29T04:00:18.000Z,10.84
2023-08-29T04:01:21.805Z,10.83
2023-08-29T04:02:23.511Z,10.81
2023-08-29T04:03:26.053Z,10.83
2023-08-29T04:04:27.896Z,10.78
2023-08-29T04:05:29.663Z,10.74
2023-08-29T04:06:35.445Z,10.79
2023-08-29T04:07:37.398Z,10.76
2023-08-29T04:08:38.943Z,10.72
2023-08-29T04:09:41.062Z,10.71
2023-08-29T04:10:43.313Z,10.70
2023-08-29T04:11:44.793Z,10.72
2023-08-29T04:12:46.484Z,10.69
2023-08-29T04:13:48.037Z,10.70
2023-08-29T04:14:49.779Z,10.77
2023-08-29T04:15:52.291Z,10.70
2023-08-29T04:16:53.970Z,10.70
2023-08-29T04:17:55.494Z,10.69
2023-08-29T04:18:56.987Z,10.63
2023-08-29T04:19:59.312Z,10.64
2023-08-29T04:21:01.030Z,10.64
2023-08-29T04:22:02.494Z,10.64
2023-08-29T04:23:08.064Z,10.63
2023-08-29T04:24:11.131Z,10.65
2023-08-29T04:25:12.612Z,10.66
2023-08-29T04:26:14.095Z,10.66
2023-08-29T04:27:15.857Z,10.66
2023-08-29T04:28:21.366Z,10.64
2023-08-29T04:29:22.893Z,10.64
2023-08-29T04:30:24.478Z,10.63
2023-08-29T04:31:26.754Z,10.61
2023-08-29T04:32:28.304Z,10.68
2023-08-29T04:33:29.836Z,10.70
2023-08-29T04:34:31.540Z,10.65
2023-08-29T04:35:33.298Z,10.74
2023-08-29T04:36:34.700Z,10.67
2023-08-29T04:37:36.642Z,10.66
2023-08-29T04:38:38.425Z,10.64
2023-08-29T04:39:40.130Z,10.69
2023-08-29T04:40:41.816Z,10.67
2023-08-29T04:41:43.359Z,10.70
2023-08-29T04:42:48.085Z,10.62
2023-08-29T04:43:49.797Z,10.69
2023-08-29T04:44:52.245Z,10.69
2023-08-29T04:45:53.888Z,10.67
2023-08-29T04:46:56.004Z,10.77
2023-08-29T04:47:57.508Z,10.71
2023-08-29T04:48:58.967Z,10.71
2023-08-29T04:50:01.587Z,10.68
2023-08-29T04:51:05.434Z,10.68
2023-08-29T04:52:07.231Z,10.72
2023-08-29T04:53:08.875Z,10.71
2023-08-29T04:54:10.445Z,10.70
2023-08-29T04:55:12.010Z,10.70
2023-08-29T04:56:14.360Z,10.66
2023-08-29T04:57:15.868Z,10.66
2023-08-29T04:58:18.025Z,10.69
2023-08-29T04:59:19.461Z,10.65
2023-08-29T05:00:20.933Z,10.70
2023-08-29T05:01:22.565Z,10.70
2023-08-29T05:02:24.229Z,10.73
2023-08-29T05:03:26.213Z,10.73
2023-08-29T05:04:27.673Z,10.80
2023-08-29T05:05:29.439Z,10.82
2023-08-29T05:06:31.182Z,10.77
2023-08-29T05:07:33.004Z,10.79
2023-08-29T05:08:37.384Z,10.88
2023-08-29T05:09:40.173Z,10.91
2023-08-29T05:10:42.052Z,10.94
2023-08-29T05:11:43.546Z,10.90
2023-08-29T05:12:45.342Z,10.99
2023-08-29T05:13:47.908Z,10.96
2023-08-29T05:14:49.743Z,11.06
2023-08-29T05:15:52.091Z,11.00
2023-08-29T05:16:54.262Z,10.97
2023-08-29T05:17:55.960Z,10.95
2023-08-29T05:18:57.865Z,10.98
2023-08-29T05:19:59.636Z,10.92
2023-08-29T05:21:01.958Z,10.92
2023-08-29T05:22:03.742Z,10.92
2023-08-29T05:23:05.504Z,10.95
2023-08-29T05:24:07.228Z,10.91
2023-08-29T05:25:08.910Z,10.91
2023-08-29T05:26:12.272Z,10.91
2023-08-29T05:27:15.663Z,11.01
2023-08-29T05:28:17.209Z,11.03
2023-08-29T05:29:18.662Z,11.00
2023-08-29T05:30:20.129Z,11.10
2023-08-29T05:31:21.886Z,11.08
2023-08-29T05:32:25.050Z,11.02
2023-08-29T05:33:28.909Z,11.06
2023-08-29T05:34:30.376Z,11.02
2023-08-29T05:35:31.996Z,11.02
2023-08-29T05:36:33.685Z,11.04
2023-08-29T05:37:35.095Z,11.14
2023-08-29T05:38:36.836Z,11.14
2023-08-29T05:39:38.346Z,11.14
2023-08-29T05:40:39.869Z,11.07
2023-08-29T05:41:41.633Z,11.02
2023-08-29T05:42:43.400Z,10.99
2023-08-29T05:43:44.904Z,10.98
2023-08-29T05:44:46.445Z,10.97
2023-08-29T05:45:47.899Z,11.02
2023-08-29T05:46:49.821Z,11.14
2023-08-29T05:47:51.547Z,11.15
2023-08-29T05:48:53.306Z,11.16
2023-08-29T05:49:54.736Z,11.18
2023-08-29T05:50:56.195Z,11.21
2023-08-29T05:51:57.699Z,11.15
2023-08-29T05:52:59.134Z,11.10
2023-08-29T05:54:00.980Z,11.14
2023-08-29T05:55:02.466Z,11.12
2023-08-29T05:56:04.813Z,11.15
2023-08-29T05:57:06.381Z,11.19
2023-08-29T05:58:08.587Z,11.19
2023-08-29T05:59:10.266Z,11.22
2023-08-29T06:00:15.094Z,11.21
2023-08-29T06:01:16.632Z,11.22
2023-08-29T06:02:18.161Z,11.34
2023-08-29T06:03:22.088Z,11.23
2023-08-29T06:04:24.680Z,11.26
2023-08-29T06:05:27.541Z,11.36
2023-08-29T06:06:29.146Z,11.32
2023-08-29T06:07:31.313Z,11.26
2023-08-29T06:08:35.434Z,11.30
2023-08-29T06:09:36.892Z,11.39
2023-08-29T06:10:38.354Z,11.28
2023-08-29T06:11:40.943Z,11.33
2023-08-29T06:12:42.580Z,11.23
2023-08-29T06:13:44.139Z,11.20
2023-08-29T06:14:45.662Z,11.19
2023-08-29T06:15:47.124Z,11.17
2023-08-29T06:16:48.714Z,11.19
2023-08-29T06:17:50.836Z,11.17
2023-08-29T06:18:52.509Z,11.18
2023-08-29T06:19:53.960Z,11.23
2023-08-29T06:20:55.459Z,11.18
2023-08-29T06:21:56.894Z,11.13
2023-08-29T06:22:59.522Z,11.18
2023-08-29T06:24:01.268Z,11.10
2023-08-29T06:25:03.111Z,11.11
2023-08-29T06:26:04.522Z,11.11
2023-08-29T06:27:05.975Z,11.12
2023-08-29T06:28:07.768Z,11.18
2023-08-29T06:29:09.542Z,11.14
2023-08-29T06:30:14.172Z,11.14
2023-08-29T06:31:15.935Z,11.17
2023-08-29T06:32:17.477Z,11.19
2023-08-29T06:33:18.936Z,11.22
2023-08-29T06:34:20.423Z,11.27
2023-08-29T06:35:22.209Z,11.22
2023-08-29T06:36:23.696Z,11.18
2023-08-29T06:37:25.393Z,11.19
2023-08-29T06:38:26.923Z,11.22
2023-08-29T06:39:29.335Z,11.25
2023-08-29T06:40:30.806Z,11.27
2023-08-29T06:41:32.290Z,11.21
2023-08-29T06:42:33.821Z,11.19
2023-08-29T06:43:35.568Z,11.21
2023-08-29T06:44:37.179Z,11.13
2023-08-29T06:45:39.093Z,11.22
2023-08-29T06:46:40.652Z,11.18
2023-08-29T06:47:42.207Z,11.17
2023-08-29T06:48:43.700Z,11.17
2023-08-29T06:49:45.317Z,11.18
2023-08-29T06:50:47.541Z,11.18
2023-08-29T06:51:51.243Z,11.14
2023-08-29T06:52:52.796Z,11.13
2023-08-29T06:53:57.044Z,11.10
2023-08-29T06:54:58.496Z,11.13
2023-08-29T06:56:00.012Z,11.17
2023-08-29T06:57:01.521Z,11.16
2023-08-29T06:58:06.212Z,11.19
2023-08-29T06:59:07.897Z,11.19
2023-08-29T07:00:11.854Z,11.20
2023-08-29T07:01:13.404Z,11.21
2023-08-29T07:02:14.916Z,11.21
2023-08-29T07:03:16.462Z,11.21
2023-08-29T07:04:18.048Z,11.22
2023-08-29T07:05:19.562Z,11.24
2023-08-29T07:06:21.036Z,11.26
2023-08-29T07:07:22.823Z,11.28
2023-08-29T07:08:24.325Z,11.31
2023-08-29T07:09:28.339Z,11.30
2023-08-29T07:10:29.857Z,11.32
2023-08-29T07:11:31.353Z,11.24
2023-08-29T07:12:33.613Z,11.25
2023-08-29T07:13:35.068Z,11.20
2023-08-29T07:14:36.648Z,11.22
2023-08-29T07:15:38.084Z,11.23
2023-08-29T07:16:39.702Z,11.26
2023-08-29T07:17:43.670Z,11.29
2023-08-29T07:18:45.764Z,11.27
2023-08-29T07:19:47.389Z,11.27
2023-08-29T07:20:50.394Z,11.27
2023-08-29T07:21:51.893Z,11.25
2023-08-29T07:22:54.197Z,11.27
2023-08-29T07:23:55.716Z,11.34
2023-08-29T07:24:57.281Z,11.30
2023-08-29T07:25:59.154Z,11.26
2023-08-29T07:27:00.920Z,11.25
2023-08-29T07:28:02.448Z,11.32
2023-08-29T07:29:06.997Z,11.36
2023-08-29T07:30:09.127Z,11.38
2023-08-29T07:31:10.583Z,11.44
2023-08-29T07:32:12.124Z,11.47
2023-08-29T07:33:14.554Z,11.54
2023-08-29T07:34:17.194Z,11.49
2023-08-29T07:35:18.884Z,11.50
2023-08-29T07:36:20.379Z,11.63
2023-08-29T07:37:21.933Z,11.60
2023-08-29T07:38:24.455Z,11.57
2023-08-29T07:39:26.007Z,11.66
2023-08-29T07:40:27.655Z,11.69
2023-08-29T07:41:29.130Z,11.68
2023-08-29T07:42:30.588Z,11.65
2023-08-29T07:43:32.092Z,11.53
2023-08-29T07:44:33.583Z,11.53
2023-08-29T07:45:36.111Z,11.61
2023-08-29T07:46:37.640Z,11.71
2023-08-29T07:47:39.896Z,11.81
2023-08-29T07:48:41.447Z,11.89
2023-08-29T07:49:43.507Z,11.95
2023-08-29T07:50:45.482Z,12.01
2023-08-29T07:51:47.892Z,11.88
2023-08-29T07:52:49.307Z,11.91
2023-08-29T07:53:50.801Z,11.96
2023-08-29T07:54:52.315Z,12.06
2023-08-29T07:55:53.871Z,12.04
2023-08-29T07:56:55.398Z,11.89
2023-08-29T07:57:58.101Z,11.99
2023-08-29T07:58:59.744Z,12.03
2023-08-29T08:00:01.598Z,12.00
2023-08-29T08:01:03.411Z,12.02
2023-08-29T08:02:05.968Z,12.00
2023-08-29T08:03:08.379Z,12.00
2023-08-29T08:04:09.951Z,12.05
2023-08-29T08:05:16.187Z,12.14
2023-08-29T08:06:17.805Z,11.89
2023-08-29T08:07:19.335Z,11.76
2023-08-29T08:08:20.780Z,11.94
2023-08-29T08:09:22.277Z,11.93
2023-08-29T08:10:24.059Z,11.96
2023-08-29T08:11:26.041Z,11.87
2023-08-29T08:12:27.502Z,11.95
2023-08-29T08:13:29.209Z,11.97
2023-08-29T08:14:30.779Z,11.91
2023-08-29T08:15:32.307Z,11.92
2023-08-29T08:16:33.791Z,11.90
2023-08-29T08:17:36.337Z,11.91
2023-08-29T08:18:37.888Z,11.96
2023-08-29T08:19:39.332Z,12.00
2023-08-29T08:20:40.746Z,12.04
2023-08-29T08:21:42.231Z,12.13
2023-08-29T08:22:43.784Z,12.14
2023-08-29T08:23:45.273Z,12.11
2023-08-29T08:24:46.762Z,12.25
2023-08-29T08:25:48.294Z,12.19
2023-08-29T08:26:50.071Z,12.29
2023-08-29T08:27:52.172Z,12.28
2023-08-29T08:28:55.078Z,12.32
2023-08-29T08:29:57.607Z,12.32
2023-08-29T08:30:59.072Z,12.38
2023-08-29T08:32:01.017Z,12.21
2023-08-29T08:33:02.802Z,12.30
2023-08-29T08:34:04.264Z,12.41
2023-08-29T08:35:07.878Z,12.40
2023-08-29T08:36:09.834Z,12.42
2023-08-29T08:37:11.303Z,12.41
2023-08-29T08:38:12.825Z,12.61
2023-08-29T08:39:14.238Z,12.62
2023-08-29T08:40:16.276Z,12.70
2023-08-29T08:41:19.240Z,12.66
2023-08-29T08:42:20.675Z,12.77
2023-08-29T08:43:23.110Z,12.72
2023-08-29T08:44:25.861Z,12.72
2023-08-29T08:45:27.375Z,12.85
2023-08-29T08:46:28.999Z,13.08
2023-08-29T08:47:30.503Z,13.25
2023-08-29T08:48:32.076Z,13.24
2023-08-29T08:49:34.164Z,13.32
2023-08-29T08:50:35.843Z,13.30
2023-08-29T08:51:41.050Z,13.29
2023-08-29T08:52:43.151Z,13.47
2023-08-29T08:53:44.782Z,13.51
2023-08-29T08:54:46.364Z,13.60
2023-08-29T08:55:50.276Z,13.51
2023-08-29T08:56:52.401Z,13.42
2023-08-29T08:57:54.178Z,13.61
2023-08-29T08:58:55.781Z,13.69
2023-08-29T08:59:57.301Z,13.76
2023-08-29T09:00:59.066Z,13.77
2023-08-29T09:02:00.622Z,13.65
2023-08-29T09:03:02.117Z,13.54
2023-08-29T09:04:04.355Z,13.28
2023-08-29T09:05:09.167Z,13.21
2023-08-29T09:06:15.816Z,13.13
2023-08-29T09:07:17.505Z,13.15
2023-08-29T09:08:21.343Z,13.13
2023-08-29T09:09:26.299Z,13.27
2023-08-29T09:10:33.175Z,13.21
2023-08-29T09:11:34.591Z,13.15
2023-08-29T09:12:36.973Z,13.03
2023-08-29T09:13:46.522Z,12.95
2023-08-29T09:14:47.955Z,13.00
2023-08-29T09:15:49.556Z,13.10
2023-08-29T09:16:59.268Z,13.22
2023-08-29T09:18:00.892Z,13.14
2023-08-29T09:19:02.625Z,13.23
2023-08-29T09:20:10.550Z,13.33
2023-08-29T09:21:19.454Z,13.37
2023-08-29T09:22:21.258Z,13.18
2023-08-29T09:23:28.103Z,13.21
2023-08-29T09:24:29.489Z,13.37
2023-08-29T09:25:30.958Z,13.35
2023-08-29T09:26:35.368Z,13.42
2023-08-29T09:27:49.922Z,13.35
2023-08-29T09:28:51.647Z,13.40
2023-08-29T09:29:53.177Z,13.35
2023-08-29T09:30:55.162Z,13.30
2023-08-29T09:31:59.373Z,13.10
2023-08-29T09:33:08.243Z,13.05
2023-08-29T09:34:10.427Z,13.04
2023-08-29T09:35:17.909Z,13.09
2023-08-29T09:36:21.208Z,13.12
2023-08-29T09:37:22.652Z,12.89
2023-08-29T09:38:29.308Z,12.86
2023-08-29T09:39:30.910Z,12.82
2023-08-29T09:40:39.015Z,12.89
2023-08-29T09:41:42.795Z,12.86
2023-08-29T09:43:00.893Z,12.76
2023-08-29T09:44:12.228Z,12.88
2023-08-29T09:45:16.862Z,12.77
2023-08-29T09:46:25.175Z,12.88
2023-08-29T09:47:27.203Z,12.94
2023-08-29T09:48:31.647Z,13.17
2023-08-29T09:49:53.545Z,13.47
2023-08-29T09:50:57.160Z,13.57
2023-08-29T09:52:02.279Z,13.63
2023-08-29T09:53:04.378Z,13.56
2023-08-29T09:54:10.204Z,13.74
2023-08-29T09:55:13.010Z,13.98
2023-08-29T09:56:15.362Z,14.08
2023-08-29T09:57:20.586Z,14.00
2023-08-29T09:58:25.064Z,14.10
2023-08-29T09:59:28.216Z,14.22
2023-08-29T10:00:29.965Z,14.23
2023-08-29T10:01:31.907Z,14.32
2023-08-29T10:02:36.088Z,14.12
2023-08-29T10:03:39.542Z,14.31
2023-08-29T10:04:55.340Z,14.10
2023-08-29T10:05:58.740Z,14.18
2023-08-29T10:07:01.737Z,14.17
2023-08-29T10:08:12.275Z,14.04
2023-08-29T10:09:15.916Z,14.10
2023-08-29T10:10:17.796Z,14.08
2023-08-29T10:11:24.113Z,14.17
2023-08-29T10:12:27.593Z,14.19
2023-08-29T10:13:30.018Z,14.14
2023-08-29T10:14:33.455Z,14.15
2023-08-29T10:15:38.760Z,14.05
2023-08-29T10:16:41.304Z,14.11
2023-08-29T10:17:43.598Z,13.97
2023-08-29T10:18:46.315Z,13.95
2023-08-29T10:19:48.887Z,13.86
2023-08-29T10:20:51.720Z,13.91
2023-08-29T10:21:54.520Z,14.00
2023-08-29T10:22:56.386Z,13.66
2023-08-29T10:23:59.912Z,13.40
2023-08-29T10:25:02.539Z,13.36
2023-08-29T10:26:04.345Z,13.32
2023-08-29T10:27:05.878Z,13.27
2023-08-29T10:28:12.164Z,13.18
2023-08-29T10:29:13.885Z,13.10
2023-08-29T10:30:15.786Z,13.13
2023-08-29T10:31:19.743Z,13.04
2023-08-29T10:32:23.005Z,13.08
2023-08-29T10:33:25.338Z,13.04
2023-08-29T10:34:30.697Z,13.19
2023-08-29T10:35:34.188Z,13.39
2023-08-29T10:36:39.674Z,13.41
2023-08-29T10:37:41.209Z,13.57
2023-08-29T10:38:48.470Z,13.78
2023-08-29T10:39:52.047Z,13.86
2023-08-29T10:41:05.038Z,13.95
2023-08-29T10:42:09.237Z,14.18
2023-08-29T10:43:19.455Z,14.61
2023-08-29T10:44:30.250Z,14.43
2023-08-29T10:45:50.174Z,14.11
2023-08-29T10:46:52.942Z,14.08
2023-08-29T10:47:54.535Z,14.16
2023-08-29T10:48:59.383Z,14.09
2023-08-29T10:50:08.315Z,14.25
2023-08-29T10:51:10.790Z,14.43
2023-08-29T10:52:12.791Z,14.26
2023-08-29T10:53:19.651Z,14.12
2023-08-29T10:54:30.597Z,13.99
2023-08-29T10:55:42.232Z,13.91
2023-08-29T10:56:44.799Z,13.86
2023-08-29T10:57:47.228Z,13.70
2023-08-29T10:58:49.119Z,13.59
2023-08-29T10:59:50.698Z,13.41
2023-08-29T11:00:57.920Z,13.36
2023-08-29T11:02:42.860Z,13.14
2023-08-29T11:03:50.246Z,12.98
2023-08-29T11:04:56.423Z,12.83
2023-08-29T11:05:58.820Z,12.80
2023-08-29T11:07:00.602Z,12.68
2023-08-29T11:08:21.883Z,12.64
2023-08-29T11:09:25.334Z,12.75
2023-08-29T11:10:26.997Z,12.84
2023-08-29T11:11:28.503Z,12.81
2023-08-29T11:12:30.049Z,12.95
2023-08-29T11:13:31.624Z,12.96
2023-08-29T11:14:58.656Z,12.86
2023-08-29T11:16:03.962Z,12.86
2023-08-29T11:17:13.211Z,12.95
2023-08-29T11:18:33.692Z,12.80
2023-08-29T11:19:36.004Z,12.70
2023-08-29T11:20:38.125Z,12.56
2023-08-29T11:21:41.285Z,12.50
2023-08-29T11:22:48.922Z,12.34
2023-08-29T11:23:58.585Z,12.22
2023-08-29T11:25:13.085Z,12.11
2023-08-29T11:26:15.477Z,12.08
2023-08-29T11:27:17.125Z,12.08
2023-08-29T11:28:19.667Z,12.10
2023-08-29T11:29:21.322Z,12.11
2023-08-29T11:30:31.500Z,12.12
2023-08-29T11:31:41.575Z,12.14
2023-08-29T11:32:50.761Z,12.15
2023-08-29T11:33:53.006Z,12.22
2023-08-29T11:34:55.343Z,12.23
2023-08-29T11:35:56.788Z,12.34
2023-08-29T11:36:58.244Z,12.50
2023-08-29T11:38:00.045Z,12.59
2023-08-29T11:39:01.827Z,12.65
2023-08-29T11:40:11.868Z,12.78
2023-08-29T11:41:39.721Z,12.91
2023-08-29T11:43:03.967Z,13.04
2023-08-29T11:44:44.788Z,13.05
2023-08-29T11:45:46.742Z,13.23
2023-08-29T11:46:50.763Z,13.28
2023-08-29T11:47:52.457Z,13.34
2023-08-29T11:48:53.941Z,13.35
2023-08-29T11:49:56.069Z,13.28
2023-08-29T11:51:07.457Z,13.36
2023-08-29T11:52:10.857Z,13.44
2023-08-29T11:53:21.879Z,13.44
2023-08-29T11:54:51.462Z,13.51
2023-08-29T11:55:53.387Z,13.34
2023-08-29T11:56:57.088Z,13.41
2023-08-29T11:57:59.678Z,13.48
2023-08-29T11:59:01.968Z,13.54
2023-08-29T12:00:05.664Z,13.52
2023-08-29T12:01:08.951Z,13.63
2023-08-29T12:02:18.698Z,13.61
2023-08-29T12:03:23.077Z,13.59
2023-08-29T12:04:24.709Z,13.60
2023-08-29T12:05:26.965Z,13.58
2023-08-29T12:06:28.670Z,13.49
2023-08-29T12:07:33.822Z,13.37
2023-08-29T12:08:38.665Z,13.43
2023-08-29T12:09:43.790Z,13.40
2023-08-29T12:10:52.791Z,13.38
2023-08-29T12:11:54.278Z,13.40
2023-08-29T12:12:56.526Z,13.44
2023-08-29T12:14:02.215Z,13.52
2023-08-29T12:15:06.924Z,13.47
2023-08-29T12:16:16.347Z,13.66
2023-08-29T12:17:19.135Z,13.83
2023-08-29T12:18:22.685Z,14.08
2023-08-29T12:19:24.149Z,14.26
2023-08-29T12:20:26.965Z,14.34
2023-08-29T12:21:28.437Z,14.29
2023-08-29T12:22:31.392Z,14.22
2023-08-29T12:23:32.847Z,14.26
2023-08-29T12:24:34.713Z,14.22
2023-08-29T12:25:36.182Z,14.21
2023-08-29T12:26:37.836Z,14.26
2023-08-29T12:27:40.876Z,14.29
2023-08-29T12:28:42.518Z,14.35
2023-08-29T12:29:43.979Z,14.44
2023-08-29T12:30:45.546Z,14.43
2023-08-29T12:31:47.056Z,14.49
2023-08-29T12:32:48.644Z,14.58
2023-08-29T12:33:50.123Z,14.69
2023-08-29T12:34:51.881Z,14.67
2023-08-29T12:35:53.438Z,14.44
2023-08-29T12:36:55.072Z,14.28
2023-08-29T12:37:56.549Z,14.20
2023-08-29T12:38:58.144Z,14.32
2023-08-29T12:39:59.635Z,14.29
2023-08-29T12:41:01.262Z,14.32
2023-08-29T12:42:03.211Z,14.08
2023-08-29T12:43:10.248Z,14.12
2023-08-29T12:44:11.775Z,14.06
2023-08-29T12:45:13.258Z,14.05
2023-08-29T12:46:14.709Z,14.12
2023-08-29T12:47:16.358Z,14.09
2023-08-29T12:48:19.473Z,14.15
2023-08-29T12:49:20.936Z,14.07
2023-08-29T12:50:22.980Z,13.96
2023-08-29T12:51:24.417Z,13.88
2023-08-29T12:52:25.982Z,13.86
2023-08-29T12:53:28.428Z,13.82
2023-08-29T12:54:29.843Z,13.90
2023-08-29T12:55:31.352Z,13.88
2023-08-29T12:56:32.806Z,13.90
2023-08-29T12:57:34.281Z,13.85
2023-08-29T12:58:35.704Z,13.91
2023-08-29T12:59:37.333Z,13.94
2023-08-29T13:00:39.359Z,14.07
2023-08-29T13:01:41.060Z,14.14
2023-08-29T13:02:42.641Z,14.15
2023-08-29T13:03:44.603Z,14.16
2023-08-29T13:04:46.876Z,14.24
2023-08-29T13:05:48.454Z,14.17
2023-08-29T13:06:49.876Z,14.15
2023-08-29T13:07:51.396Z,14.16
2023-08-29T13:08:52.916Z,14.17
2023-08-29T13:09:55.870Z,14.06
2023-08-29T13:10:57.434Z,14.06
2023-08-29T13:11:58.903Z,14.05
2023-08-29T13:13:00.522Z,13.95
2023-08-29T13:14:01.935Z,13.83
2023-08-29T13:15:06.661Z,13.52
2023-08-29T13:16:08.220Z,13.18
2023-08-29T13:17:12.751Z,12.99
2023-08-29T13:18:16.226Z,12.83
2023-08-29T13:19:17.750Z,12.79
2023-08-29T13:20:21.941Z,12.77
2023-08-29T13:21:23.792Z,12.79
2023-08-29T13:22:25.320Z,12.83
2023-08-29T13:23:26.962Z,12.94
2023-08-29T13:24:29.028Z,13.08
2023-08-29T13:40:36.286Z,13.58
2023-08-29T13:41:37.768Z,13.53
2023-08-29T13:42:39.180Z,13.61
2023-08-29T13:43:40.832Z,13.69
2023-08-29T13:44:42.300Z,13.75
2023-08-29T13:45:43.900Z,13.72
2023-08-29T13:46:46.710Z,13.66
2023-08-29T13:47:48.660Z,13.81